sensor_id;sensor_type;location;lat;lon;timestamp;temperature;humidity
21123;DHT22;10719;48.130;11.630;2023-02-28T00:01:08;-2.80;99.90
21123;DHT22;10719;48.130;11.630;2023-02-28T00:03:34;-2.80;99.90
21123;DHT22;10719;48.130;11.630;2023-02-28T00:06:02;-2.90;99.90
21123;DHT22;10719;48.130;11.630;2023-02-28T00:08:28;-2.90;99.90
21123;DHT22;10719;48.130;11.630;2023-02-28T00:10:54;-3.00;99.90
21123;DHT22;10719;48.130;11.630;2023-02-28T00:13:19;-2.90;99.90
21123;DHT22;10719;48.130;11.630;2023-02-28T00:15:45;-2.90;99.90
21123;DHT22;10719;48.130;11.630;2023-02-28T00:18:11;-2.90;99.90
21123;DHT22;10719;48.130;11.630;2023-02-28T00:20:37;-2.90;99.90
21123;DHT22;10719;48.130;11.630;2023-02-28T00:23:03;-3.00;99.90
21123;DHT22;10719;48.130;11.630;2023-02-28T00:25:29;-3.00;99.90
21123;DHT22;10719;48.130;11.630;2023-02-28T00:27:54;-3.00;99.90
21123;DHT22;10719;48.130;11.630;2023-02-28T00:30:22;-3.10;99.90
21123;DHT22;10719;48.130;11.630;2023-02-28T00:32:48;-3.10;99.90
21123;DHT22;10719;48.130;11.630;2023-02-28T00:35:14;-3.00;99.90
21123;DHT22;10719;48.130;11.630;2023-02-28T00:37:40;-3.00;99.90
21123;DHT22;10719;48.130;11.630;2023-02-28T00:40:06;-3.00;99.90
21123;DHT22;10719;48.130;11.630;2023-02-28T00:42:33;-3.00;99.90
21123;DHT22;10719;48.130;11.630;2023-02-28T00:44:59;-3.00;99.90
21123;DHT22;10719;48.130;11.630;2023-02-28T00:47:25;-3.20;99.90
21123;DHT22;10719;48.130;11.630;2023-02-28T00:49:51;-3.10;99.90
21123;DHT22;10719;48.130;11.630;2023-02-28T00:52:17;-3.10;99.90
21123;DHT22;10719;48.130;11.630;2023-02-28T00:54:42;-3.10;99.90
21123;DHT22;10719;48.130;11.630;2023-02-28T00:57:08;-3.10;99.90
21123;DHT22;10719;48.130;11.630;2023-02-28T00:59:35;-3.10;99.90
21123;DHT22;10719;48.130;11.630;2023-02-28T01:02:00;-3.20;99.90
21123;DHT22;10719;48.130;11.630;2023-02-28T01:04:26;-3.20;99.90
21123;DHT22;10719;48.130;11.630;2023-02-28T01:06:51;-3.30;99.90
21123;DHT22;10719;48.130;11.630;2023-02-28T01:09:17;-3.30;99.90
21123;DHT22;10719;48.130;11.630;2023-02-28T01:11:43;-3.30;99.90
21123;DHT22;10719;48.130;11.630;2023-02-28T01:14:12;-3.30;99.90
21123;DHT22;10719;48.130;11.630;2023-02-28T01:16:38;-3.30;99.90
21123;DHT22;10719;48.130;11.630;2023-02-28T01:19:04;-3.30;99.90
21123;DHT22;10719;48.130;11.630;2023-02-28T01:21:30;-3.30;99.90
21123;DHT22;10719;48.130;11.630;2023-02-28T01:23:56;-3.30;99.90
21123;DHT22;10719;48.130;11.630;2023-02-28T01:26:23;-3.30;99.90
21123;DHT22;10719;48.130;11.630;2023-02-28T01:28:50;-3.30;99.90
21123;DHT22;10719;48.130;11.630;2023-02-28T01:31:16;-3.30;99.90
21123;DHT22;10719;48.130;11.630;2023-02-28T01:33:43;-3.30;99.90
21123;DHT22;10719;48.130;11.630;2023-02-28T01:36:12;-3.30;99.90
21123;DHT22;10719;48.130;11.630;2023-02-28T01:38:38;-3.40;99.90
21123;DHT22;10719;48.130;11.630;2023-02-28T01:41:04;-3.40;99.90
21123;DHT22;10719;48.130;11.630;2023-02-28T01:46:08;-3.40;99.90
21123;DHT22;10719;48.130;11.630;2023-02-28T01:48:38;-3.40;99.90
21123;DHT22;10719;48.130;11.630;2023-02-28T01:51:11;-3.40;99.90
21123;DHT22;10719;48.130;11.630;2023-02-28T01:53:43;-3.50;99.90
21123;DHT22;10719;48.130;11.630;2023-02-28T01:56:12;-3.50;99.90
21123;DHT22;10719;48.130;11.630;2023-02-28T01:58:38;-3.50;99.90
21123;DHT22;10719;48.130;11.630;2023-02-28T02:01:04;-3.50;99.90
21123;DHT22;10719;48.130;11.630;2023-02-28T02:03:30;-3.50;99.90
21123;DHT22;10719;48.130;11.630;2023-02-28T02:05:56;-3.50;99.90
21123;DHT22;10719;48.130;11.630;2023-02-28T02:08:26;-3.50;99.90
21123;DHT22;10719;48.130;11.630;2023-02-28T02:10:59;-3.60;99.90
21123;DHT22;10719;48.130;11.630;2023-02-28T02:16:54;-3.60;99.90
21123;DHT22;10719;48.130;11.630;2023-02-28T02:25:32;-3.50;99.90
21123;DHT22;10719;48.130;11.630;2023-02-28T02:31:24;-3.60;99.90
21123;DHT22;10719;48.130;11.630;2023-02-28T02:36:45;-3.60;99.90
21123;DHT22;10719;48.130;11.630;2023-02-28T02:39:51;-3.70;99.90
21123;DHT22;10719;48.130;11.630;2023-02-28T02:42:29;-3.70;99.90
21123;DHT22;10719;48.130;11.630;2023-02-28T02:45:06;-3.70;99.90
21123;DHT22;10719;48.130;11.630;2023-02-28T02:47:33;-3.70;99.90
21123;DHT22;10719;48.130;11.630;2023-02-28T02:50:03;-3.70;99.90
21123;DHT22;10719;48.130;11.630;2023-02-28T02:52:42;-3.70;99.90
21123;DHT22;10719;48.130;11.630;2023-02-28T02:55:11;-3.80;99.90
21123;DHT22;10719;48.130;11.630;2023-02-28T02:57:46;-3.70;99.90
21123;DHT22;10719;48.130;11.630;2023-02-28T03:00:14;-3.70;99.90
21123;DHT22;10719;48.130;11.630;2023-02-28T03:02:42;-3.70;99.90
21123;DHT22;10719;48.130;11.630;2023-02-28T03:05:19;-3.80;99.90
21123;DHT22;10719;48.130;11.630;2023-02-28T03:07:46;-3.80;99.90
21123;DHT22;10719;48.130;11.630;2023-02-28T03:10:38;-3.80;99.90
21123;DHT22;10719;48.130;11.630;2023-02-28T03:15:57;-3.90;99.90
21123;DHT22;10719;48.130;11.630;2023-02-28T03:18:43;-3.90;99.90
21123;DHT22;10719;48.130;11.630;2023-02-28T03:24:11;-3.90;99.90
21123;DHT22;10719;48.130;11.630;2023-02-28T03:26:43;-3.80;99.90
21123;DHT22;10719;48.130;11.630;2023-02-28T03:29:23;-3.90;99.90
21123;DHT22;10719;48.130;11.630;2023-02-28T03:32:04;-3.80;99.90
21123;DHT22;10719;48.130;11.630;2023-02-28T03:34:37;-3.90;99.90
21123;DHT22;10719;48.130;11.630;2023-02-28T03:37:13;-3.90;99.90
21123;DHT22;10719;48.130;11.630;2023-02-28T03:39:47;-4.00;99.90
21123;DHT22;10719;48.130;11.630;2023-02-28T03:42:20;-4.00;99.90
21123;DHT22;10719;48.130;11.630;2023-02-28T03:44:59;-4.00;99.90
21123;DHT22;10719;48.130;11.630;2023-02-28T03:47:37;-4.00;99.90
21123;DHT22;10719;48.130;11.630;2023-02-28T03:52:37;-4.00;99.90
21123;DHT22;10719;48.130;11.630;2023-02-28T03:55:07;-4.00;99.90
21123;DHT22;10719;48.130;11.630;2023-02-28T03:58:00;-3.90;99.90
21123;DHT22;10719;48.130;11.630;2023-02-28T04:00:31;-4.00;99.90
21123;DHT22;10719;48.130;11.630;2023-02-28T04:02:59;-3.90;99.90
21123;DHT22;10719;48.130;11.630;2023-02-28T04:05:25;-3.90;99.90
21123;DHT22;10719;48.130;11.630;2023-02-28T04:07:52;-3.90;99.90
21123;DHT22;10719;48.130;11.630;2023-02-28T04:10:19;-3.90;99.90
21123;DHT22;10719;48.130;11.630;2023-02-28T04:12:45;-3.90;99.90
21123;DHT22;10719;48.130;11.630;2023-02-28T04:15:10;-3.90;99.90
21123;DHT22;10719;48.130;11.630;2023-02-28T04:17:36;-4.00;99.90
21123;DHT22;10719;48.130;11.630;2023-02-28T04:20:03;-3.90;99.90
21123;DHT22;10719;48.130;11.630;2023-02-28T04:22:29;-3.90;99.90
21123;DHT22;10719;48.130;11.630;2023-02-28T04:24:54;-3.90;99.90
21123;DHT22;10719;48.130;11.630;2023-02-28T04:27:21;-3.90;99.90
21123;DHT22;10719;48.130;11.630;2023-02-28T04:29:46;-3.80;99.90
21123;DHT22;10719;48.130;11.630;2023-02-28T04:32:12;-3.80;99.90
21123;DHT22;10719;48.130;11.630;2023-02-28T04:34:38;-3.80;99.90
21123;DHT22;10719;48.130;11.630;2023-02-28T04:37:04;-3.80;99.90
21123;DHT22;10719;48.130;11.630;2023-02-28T04:39:34;-3.70;99.90
21123;DHT22;10719;48.130;11.630;2023-02-28T04:42:00;-3.60;99.90
21123;DHT22;10719;48.130;11.630;2023-02-28T04:44:25;-3.50;99.90
21123;DHT22;10719;48.130;11.630;2023-02-28T04:46:51;-3.50;99.90
21123;DHT22;10719;48.130;11.630;2023-02-28T04:49:16;-3.40;99.90
21123;DHT22;10719;48.130;11.630;2023-02-28T04:51:42;-3.30;99.90
21123;DHT22;10719;48.130;11.630;2023-02-28T04:54:08;-3.30;99.90
21123;DHT22;10719;48.130;11.630;2023-02-28T04:56:34;-3.30;99.90
21123;DHT22;10719;48.130;11.630;2023-02-28T04:58:59;-3.20;99.90
21123;DHT22;10719;48.130;11.630;2023-02-28T05:01:33;-3.10;99.90
21123;DHT22;10719;48.130;11.630;2023-02-28T05:04:01;-3.10;99.90
21123;DHT22;10719;48.130;11.630;2023-02-28T05:06:29;-3.20;99.90
21123;DHT22;10719;48.130;11.630;2023-02-28T05:08:56;-3.20;99.90
21123;DHT22;10719;48.130;11.630;2023-02-28T05:11:30;-3.10;99.90
21123;DHT22;10719;48.130;11.630;2023-02-28T05:14:03;-3.10;99.90
21123;DHT22;10719;48.130;11.630;2023-02-28T05:16:30;-3.10;99.90
21123;DHT22;10719;48.130;11.630;2023-02-28T05:18:56;-3.10;99.90
21123;DHT22;10719;48.130;11.630;2023-02-28T05:21:35;-3.00;99.90
21123;DHT22;10719;48.130;11.630;2023-02-28T05:24:04;-3.00;99.90
21123;DHT22;10719;48.130;11.630;2023-02-28T05:26:31;-3.00;99.90
21123;DHT22;10719;48.130;11.630;2023-02-28T05:28:56;-2.90;99.90
21123;DHT22;10719;48.130;11.630;2023-02-28T05:31:23;-2.90;99.90
21123;DHT22;10719;48.130;11.630;2023-02-28T05:33:48;-2.90;99.90
21123;DHT22;10719;48.130;11.630;2023-02-28T05:36:14;-2.80;99.90
21123;DHT22;10719;48.130;11.630;2023-02-28T05:38:40;-2.80;99.90
21123;DHT22;10719;48.130;11.630;2023-02-28T05:41:09;-2.80;99.90
21123;DHT22;10719;48.130;11.630;2023-02-28T05:43:36;-2.80;99.90
21123;DHT22;10719;48.130;11.630;2023-02-28T05:46:09;-2.70;99.90
21123;DHT22;10719;48.130;11.630;2023-02-28T05:48:36;-2.70;99.90
21123;DHT22;10719;48.130;11.630;2023-02-28T05:51:03;-2.70;99.90
21123;DHT22;10719;48.130;11.630;2023-02-28T05:53:29;-2.70;99.90
21123;DHT22;10719;48.130;11.630;2023-02-28T05:55:55;-2.60;99.90
21123;DHT22;10719;48.130;11.630;2023-02-28T05:58:21;-2.60;99.90
21123;DHT22;10719;48.130;11.630;2023-02-28T06:00:47;-2.50;99.90
21123;DHT22;10719;48.130;11.630;2023-02-28T06:03:13;-2.50;99.90
21123;DHT22;10719;48.130;11.630;2023-02-28T06:05:38;-2.60;99.90
21123;DHT22;10719;48.130;11.630;2023-02-28T06:08:04;-2.50;99.90
21123;DHT22;10719;48.130;11.630;2023-02-28T06:10:32;-2.50;99.90
21123;DHT22;10719;48.130;11.630;2023-02-28T06:13:00;-2.60;99.90
21123;DHT22;10719;48.130;11.630;2023-02-28T06:15:28;-2.50;99.90
21123;DHT22;10719;48.130;11.630;2023-02-28T06:17:55;-2.50;99.90
21123;DHT22;10719;48.130;11.630;2023-02-28T06:20:24;-2.50;99.90
21123;DHT22;10719;48.130;11.630;2023-02-28T06:22:51;-2.50;99.90
21123;DHT22;10719;48.130;11.630;2023-02-28T06:25:17;-2.60;99.90
21123;DHT22;10719;48.130;11.630;2023-02-28T06:27:43;-2.50;99.90
21123;DHT22;10719;48.130;11.630;2023-02-28T06:30:10;-2.50;99.90
21123;DHT22;10719;48.130;11.630;2023-02-28T06:32:36;-2.60;99.90
21123;DHT22;10719;48.130;11.630;2023-02-28T06:35:02;-2.50;99.90
21123;DHT22;10719;48.130;11.630;2023-02-28T06:37:31;-2.50;99.90
21123;DHT22;10719;48.130;11.630;2023-02-28T06:39:57;-2.50;99.90
21123;DHT22;10719;48.130;11.630;2023-02-28T06:42:23;-2.50;99.90
21123;DHT22;10719;48.130;11.630;2023-02-28T06:44:57;-2.40;99.90
21123;DHT22;10719;48.130;11.630;2023-02-28T06:47:22;-2.50;99.90
21123;DHT22;10719;48.130;11.630;2023-02-28T06:49:49;-2.50;99.90
21123;DHT22;10719;48.130;11.630;2023-02-28T06:52:14;-2.40;99.90
21123;DHT22;10719;48.130;11.630;2023-02-28T06:54:40;-2.40;99.90
21123;DHT22;10719;48.130;11.630;2023-02-28T06:57:06;-2.40;99.90
21123;DHT22;10719;48.130;11.630;2023-02-28T06:59:32;-2.40;99.90
21123;DHT22;10719;48.130;11.630;2023-02-28T07:01:57;-2.30;99.90
21123;DHT22;10719;48.130;11.630;2023-02-28T07:04:23;-2.30;99.90
21123;DHT22;10719;48.130;11.630;2023-02-28T07:06:49;-2.30;99.90
21123;DHT22;10719;48.130;11.630;2023-02-28T07:09:14;-2.40;99.90
21123;DHT22;10719;48.130;11.630;2023-02-28T07:11:40;-2.30;99.90
21123;DHT22;10719;48.130;11.630;2023-02-28T07:14:08;-2.20;99.90
21123;DHT22;10719;48.130;11.630;2023-02-28T07:16:36;-2.20;99.90
21123;DHT22;10719;48.130;11.630;2023-02-28T07:19:01;-2.20;99.90
21123;DHT22;10719;48.130;11.630;2023-02-28T07:21:27;-2.20;99.90
21123;DHT22;10719;48.130;11.630;2023-02-28T07:23:53;-2.20;99.90
21123;DHT22;10719;48.130;11.630;2023-02-28T07:26:20;-2.10;99.90
21123;DHT22;10719;48.130;11.630;2023-02-28T07:28:47;-2.10;99.90
21123;DHT22;10719;48.130;11.630;2023-02-28T07:31:14;-2.10;99.90
21123;DHT22;10719;48.130;11.630;2023-02-28T07:33:40;-2.00;99.90
21123;DHT22;10719;48.130;11.630;2023-02-28T07:36:11;-2.00;99.90
21123;DHT22;10719;48.130;11.630;2023-02-28T07:38:45;-2.10;99.90
21123;DHT22;10719;48.130;11.630;2023-02-28T07:41:14;-2.10;99.90
21123;DHT22;10719;48.130;11.630;2023-02-28T07:43:39;-2.10;99.90
21123;DHT22;10719;48.130;11.630;2023-02-28T07:46:08;-2.00;99.90
21123;DHT22;10719;48.130;11.630;2023-02-28T07:48:34;-2.00;99.90
21123;DHT22;10719;48.130;11.630;2023-02-28T07:51:00;-2.00;99.90
21123;DHT22;10719;48.130;11.630;2023-02-28T07:53:26;-2.00;99.90
21123;DHT22;10719;48.130;11.630;2023-02-28T07:55:59;-2.00;99.90
21123;DHT22;10719;48.130;11.630;2023-02-28T07:58:27;-2.00;99.90
21123;DHT22;10719;48.130;11.630;2023-02-28T08:00:53;-2.20;99.90
21123;DHT22;10719;48.130;11.630;2023-02-28T08:03:20;-2.10;99.90
21123;DHT22;10719;48.130;11.630;2023-02-28T08:05:47;-2.00;99.90
21123;DHT22;10719;48.130;11.630;2023-02-28T08:08:14;-2.00;99.90
21123;DHT22;10719;48.130;11.630;2023-02-28T08:10:40;-2.00;99.90
21123;DHT22;10719;48.130;11.630;2023-02-28T08:13:06;-1.90;99.90
21123;DHT22;10719;48.130;11.630;2023-02-28T08:15:31;-2.00;99.90
21123;DHT22;10719;48.130;11.630;2023-02-28T08:17:57;-2.00;99.90
21123;DHT22;10719;48.130;11.630;2023-02-28T08:20:24;-2.10;99.90
21123;DHT22;10719;48.130;11.630;2023-02-28T08:22:50;-1.90;99.90
21123;DHT22;10719;48.130;11.630;2023-02-28T08:25:15;-1.90;99.90
21123;DHT22;10719;48.130;11.630;2023-02-28T08:27:41;-1.80;99.90
21123;DHT22;10719;48.130;11.630;2023-02-28T08:30:09;-1.80;99.90
21123;DHT22;10719;48.130;11.630;2023-02-28T08:32:35;-1.80;99.90
21123;DHT22;10719;48.130;11.630;2023-02-28T08:35:01;-1.80;99.90
21123;DHT22;10719;48.130;11.630;2023-02-28T08:37:28;-1.80;99.90
21123;DHT22;10719;48.130;11.630;2023-02-28T08:39:54;-1.80;99.90
21123;DHT22;10719;48.130;11.630;2023-02-28T08:42:19;-1.90;99.90
21123;DHT22;10719;48.130;11.630;2023-02-28T08:44:45;-1.80;99.90
21123;DHT22;10719;48.130;11.630;2023-02-28T08:47:11;-1.70;99.90
21123;DHT22;10719;48.130;11.630;2023-02-28T08:49:37;-1.80;99.90
21123;DHT22;10719;48.130;11.630;2023-02-28T08:52:03;-1.80;99.90
21123;DHT22;10719;48.130;11.630;2023-02-28T08:54:28;-1.70;99.90
21123;DHT22;10719;48.130;11.630;2023-02-28T08:56:56;-1.50;99.90
21123;DHT22;10719;48.130;11.630;2023-02-28T08:59:22;-1.60;99.90
21123;DHT22;10719;48.130;11.630;2023-02-28T09:01:48;-1.60;99.90
21123;DHT22;10719;48.130;11.630;2023-02-28T09:04:14;-1.50;99.90
21123;DHT22;10719;48.130;11.630;2023-02-28T09:06:39;-1.40;99.90
21123;DHT22;10719;48.130;11.630;2023-02-28T09:09:05;-1.50;99.90
21123;DHT22;10719;48.130;11.630;2023-02-28T09:11:33;-1.50;99.90
21123;DHT22;10719;48.130;11.630;2023-02-28T09:13:59;-1.40;99.90
21123;DHT22;10719;48.130;11.630;2023-02-28T09:16:26;-1.40;99.90
21123;DHT22;10719;48.130;11.630;2023-02-28T09:18:52;-1.40;99.90
21123;DHT22;10719;48.130;11.630;2023-02-28T09:21:18;-1.40;99.90
21123;DHT22;10719;48.130;11.630;2023-02-28T09:23:46;-1.30;99.90
21123;DHT22;10719;48.130;11.630;2023-02-28T09:26:26;-1.30;99.90
21123;DHT22;10719;48.130;11.630;2023-02-28T09:28:52;-1.40;99.90
21123;DHT22;10719;48.130;11.630;2023-02-28T09:31:21;-1.10;99.90
21123;DHT22;10719;48.130;11.630;2023-02-28T09:33:48;-1.10;99.90
21123;DHT22;10719;48.130;11.630;2023-02-28T09:36:14;-1.20;99.90
21123;DHT22;10719;48.130;11.630;2023-02-28T09:38:40;-1.20;99.90
21123;DHT22;10719;48.130;11.630;2023-02-28T09:41:19;-1.10;99.90
21123;DHT22;10719;48.130;11.630;2023-02-28T09:43:53;-1.20;99.90
21123;DHT22;10719;48.130;11.630;2023-02-28T09:46:28;-1.10;99.90
21123;DHT22;10719;48.130;11.630;2023-02-28T09:48:55;-1.00;99.90
21123;DHT22;10719;48.130;11.630;2023-02-28T09:51:34;-0.90;99.90
21123;DHT22;10719;48.130;11.630;2023-02-28T09:54:02;-0.70;99.90
21123;DHT22;10719;48.130;11.630;2023-02-28T09:56:30;-0.70;99.90
21123;DHT22;10719;48.130;11.630;2023-02-28T10:04:46;-0.70;99.90
21123;DHT22;10719;48.130;11.630;2023-02-28T10:10:49;-0.60;99.90
21123;DHT22;10719;48.130;11.630;2023-02-28T10:13:46;-0.60;99.90
21123;DHT22;10719;48.130;11.630;2023-02-28T10:16:35;-0.40;99.90
21123;DHT22;10719;48.130;11.630;2023-02-28T10:22:02;-0.40;99.90
21123;DHT22;10719;48.130;11.630;2023-02-28T10:24:49;-0.40;99.90
21123;DHT22;10719;48.130;11.630;2023-02-28T10:29:49;-0.10;99.90
21123;DHT22;10719;48.130;11.630;2023-02-28T10:32:18;-0.20;99.90
21123;DHT22;10719;48.130;11.630;2023-02-28T10:34:44;0.00;99.90
21123;DHT22;10719;48.130;11.630;2023-02-28T10:37:16;0.10;99.90
21123;DHT22;10719;48.130;11.630;2023-02-28T10:39:44;0.00;99.90
21123;DHT22;10719;48.130;11.630;2023-02-28T10:47:30;0.20;99.90
21123;DHT22;10719;48.130;11.630;2023-02-28T10:49:57;0.20;99.90
21123;DHT22;10719;48.130;11.630;2023-02-28T10:52:39;0.30;99.90
21123;DHT22;10719;48.130;11.630;2023-02-28T10:55:23;0.20;99.90
21123;DHT22;10719;48.130;11.630;2023-02-28T10:57:51;0.40;99.90
21123;DHT22;10719;48.130;11.630;2023-02-28T11:02:47;0.20;99.90
21123;DHT22;10719;48.130;11.630;2023-02-28T11:05:32;0.30;99.90
21123;DHT22;10719;48.130;11.630;2023-02-28T11:08:14;0.50;99.90
21123;DHT22;10719;48.130;11.630;2023-02-28T11:10:48;0.90;99.90
21123;DHT22;10719;48.130;11.630;2023-02-28T11:13:19;1.30;99.90
21123;DHT22;10719;48.130;11.630;2023-02-28T11:15:54;1.40;99.90
21123;DHT22;10719;48.130;11.630;2023-02-28T11:18:40;1.40;99.90
21123;DHT22;10719;48.130;11.630;2023-02-28T11:21:07;1.30;99.90
21123;DHT22;10719;48.130;11.630;2023-02-28T11:23:36;1.30;99.90
21123;DHT22;10719;48.130;11.630;2023-02-28T11:26:04;1.60;99.90
21123;DHT22;10719;48.130;11.630;2023-02-28T11:28:36;2.00;99.90
21123;DHT22;10719;48.130;11.630;2023-02-28T11:34:07;2.30;99.90
21123;DHT22;10719;48.130;11.630;2023-02-28T11:36:54;1.90;99.90
21123;DHT22;10719;48.130;11.630;2023-02-28T11:39:21;1.50;99.90
21123;DHT22;10719;48.130;11.630;2023-02-28T11:42:07;1.40;99.90
21123;DHT22;10719;48.130;11.630;2023-02-28T11:52:56;2.20;99.90
21123;DHT22;10719;48.130;11.630;2023-02-28T12:01:09;3.60;99.90
21123;DHT22;10719;48.130;11.630;2023-02-28T12:07:02;3.20;99.90
21123;DHT22;10719;48.130;11.630;2023-02-28T12:09:35;3.10;99.90
21123;DHT22;10719;48.130;11.630;2023-02-28T12:26:09;4.20;99.90
21123;DHT22;10719;48.130;11.630;2023-02-28T12:28:48;4.90;99.90
21123;DHT22;10719;48.130;11.630;2023-02-28T12:31:21;6.40;99.90
21123;DHT22;10719;48.130;11.630;2023-02-28T12:33:52;6.80;99.90
21123;DHT22;10719;48.130;11.630;2023-02-28T12:36:20;6.60;99.90
21123;DHT22;10719;48.130;11.630;2023-02-28T12:39:01;6.00;99.90
21123;DHT22;10719;48.130;11.630;2023-02-28T12:44:32;4.90;99.90
21123;DHT22;10719;48.130;11.630;2023-02-28T12:47:04;5.00;99.90
21123;DHT22;10719;48.130;11.630;2023-02-28T12:49:32;5.80;99.90
21123;DHT22;10719;48.130;11.630;2023-02-28T12:52:00;5.70;99.90
21123;DHT22;10719;48.130;11.630;2023-02-28T12:58:41;8.10;99.90
21123;DHT22;10719;48.130;11.630;2023-02-28T13:00:36;8.00;99.90
21123;DHT22;10719;48.130;11.630;2023-02-28T13:03:14;9.00;99.90
21123;DHT22;10719;48.130;11.630;2023-02-28T13:06:08;10.00;99.90
21123;DHT22;10719;48.130;11.630;2023-02-28T13:14:02;6.10;99.90
21123;DHT22;10719;48.130;11.630;2023-02-28T13:16:28;5.80;99.90
21123;DHT22;10719;48.130;11.630;2023-02-28T13:19:17;5.80;99.90
21123;DHT22;10719;48.130;11.630;2023-02-28T13:21:44;5.20;99.90
21123;DHT22;10719;48.130;11.630;2023-02-28T13:24:11;4.50;99.90
21123;DHT22;10719;48.130;11.630;2023-02-28T13:35:34;3.70;99.90
21123;DHT22;10719;48.130;11.630;2023-02-28T13:39:55;3.50;99.90
21123;DHT22;10719;48.130;11.630;2023-02-28T13:47:40;3.70;99.90
21123;DHT22;10719;48.130;11.630;2023-02-28T13:53:14;3.60;99.90
21123;DHT22;10719;48.130;11.630;2023-02-28T13:55:52;3.70;99.90
21123;DHT22;10719;48.130;11.630;2023-02-28T14:06:19;5.10;99.90
21123;DHT22;10719;48.130;11.630;2023-02-28T14:09:03;5.00;99.90
21123;DHT22;10719;48.130;11.630;2023-02-28T14:11:40;4.70;99.90
21123;DHT22;10719;48.130;11.630;2023-02-28T14:14:07;5.30;99.90
21123;DHT22;10719;48.130;11.630;2023-02-28T14:16:46;5.30;99.90
21123;DHT22;10719;48.130;11.630;2023-02-28T14:19:26;5.40;99.90
21123;DHT22;10719;48.130;11.630;2023-02-28T14:28:02;4.50;99.90
21123;DHT22;10719;48.130;11.630;2023-02-28T14:30:52;4.20;99.90
21123;DHT22;10719;48.130;11.630;2023-02-28T14:38:35;4.00;99.90
21123;DHT22;10719;48.130;11.630;2023-02-28T14:41:04;3.80;99.90
21123;DHT22;10719;48.130;11.630;2023-02-28T14:43:36;3.70;99.90
21123;DHT22;10719;48.130;11.630;2023-02-28T14:46:04;3.90;99.90
21123;DHT22;10719;48.130;11.630;2023-02-28T14:48:31;4.10;99.90
21123;DHT22;10719;48.130;11.630;2023-02-28T14:51:00;4.00;99.90
21123;DHT22;10719;48.130;11.630;2023-02-28T14:53:29;4.00;99.90
21123;DHT22;10719;48.130;11.630;2023-02-28T14:55:55;4.00;99.90
21123;DHT22;10719;48.130;11.630;2023-02-28T14:58:31;4.20;99.90
21123;DHT22;10719;48.130;11.630;2023-02-28T15:00:59;4.10;99.90
21123;DHT22;10719;48.130;11.630;2023-02-28T15:03:37;3.90;99.90
21123;DHT22;10719;48.130;11.630;2023-02-28T15:06:11;3.80;99.90
21123;DHT22;10719;48.130;11.630;2023-02-28T15:08:37;3.90;99.90
21123;DHT22;10719;48.130;11.630;2023-02-28T15:11:14;3.90;99.90
21123;DHT22;10719;48.130;11.630;2023-02-28T15:13:50;3.90;99.90
21123;DHT22;10719;48.130;11.630;2023-02-28T15:16:37;3.80;99.90
21123;DHT22;10719;48.130;11.630;2023-02-28T15:19:07;3.80;99.90
21123;DHT22;10719;48.130;11.630;2023-02-28T15:21:42;3.70;99.90
21123;DHT22;10719;48.130;11.630;2023-02-28T15:24:22;3.70;99.90
21123;DHT22;10719;48.130;11.630;2023-02-28T15:27:02;3.40;99.90
21123;DHT22;10719;48.130;11.630;2023-02-28T15:29:32;3.70;99.90
21123;DHT22;10719;48.130;11.630;2023-02-28T15:32:05;3.60;99.90
21123;DHT22;10719;48.130;11.630;2023-02-28T15:34:42;3.70;99.90
21123;DHT22;10719;48.130;11.630;2023-02-28T15:39:53;3.40;99.90
21123;DHT22;10719;48.130;11.630;2023-02-28T15:42:22;3.40;99.90
21123;DHT22;10719;48.130;11.630;2023-02-28T15:44:48;3.40;99.90
21123;DHT22;10719;48.130;11.630;2023-02-28T15:47:25;3.30;99.90
21123;DHT22;10719;48.130;11.630;2023-02-28T15:49:58;3.20;99.90
21123;DHT22;10719;48.130;11.630;2023-02-28T15:54:53;2.90;99.90
21123;DHT22;10719;48.130;11.630;2023-02-28T15:57:22;2.90;99.90
21123;DHT22;10719;48.130;11.630;2023-02-28T15:59:54;2.90;99.90
21123;DHT22;10719;48.130;11.630;2023-02-28T16:02:25;2.70;99.90
21123;DHT22;10719;48.130;11.630;2023-02-28T16:07:24;2.60;99.90
21123;DHT22;10719;48.130;11.630;2023-02-28T16:09:51;2.60;99.90
21123;DHT22;10719;48.130;11.630;2023-02-28T16:12:17;2.60;99.90
21123;DHT22;10719;48.130;11.630;2023-02-28T16:14:42;2.50;99.90
21123;DHT22;10719;48.130;11.630;2023-02-28T16:17:23;2.60;99.90
21123;DHT22;10719;48.130;11.630;2023-02-28T16:19:49;2.50;99.90
21123;DHT22;10719;48.130;11.630;2023-02-28T16:22:15;2.50;99.90
21123;DHT22;10719;48.130;11.630;2023-02-28T16:24:40;2.40;99.90
21123;DHT22;10719;48.130;11.630;2023-02-28T16:27:06;2.30;99.90
21123;DHT22;10719;48.130;11.630;2023-02-28T16:29:40;2.30;99.90
21123;DHT22;10719;48.130;11.630;2023-02-28T16:32:06;2.20;99.90
21123;DHT22;10719;48.130;11.630;2023-02-28T16:34:31;2.20;99.90
21123;DHT22;10719;48.130;11.630;2023-02-28T16:36:57;2.10;99.90
21123;DHT22;10719;48.130;11.630;2023-02-28T16:39:23;2.10;99.90
21123;DHT22;10719;48.130;11.630;2023-02-28T16:41:50;2.10;99.90
21123;DHT22;10719;48.130;11.630;2023-02-28T16:44:31;2.00;99.90
21123;DHT22;10719;48.130;11.630;2023-02-28T16:47:00;2.00;99.90
21123;DHT22;10719;48.130;11.630;2023-02-28T16:49:26;1.90;99.90
21123;DHT22;10719;48.130;11.630;2023-02-28T16:51:52;1.90;99.90
21123;DHT22;10719;48.130;11.630;2023-02-28T16:54:17;1.80;99.90
21123;DHT22;10719;48.130;11.630;2023-02-28T16:56:45;1.80;99.90
21123;DHT22;10719;48.130;11.630;2023-02-28T16:59:12;1.80;99.90
21123;DHT22;10719;48.130;11.630;2023-02-28T17:01:38;1.70;99.90
21123;DHT22;10719;48.130;11.630;2023-02-28T17:04:04;1.70;99.90
21123;DHT22;10719;48.130;11.630;2023-02-28T17:06:30;1.60;99.90
21123;DHT22;10719;48.130;11.630;2023-02-28T17:08:57;1.50;99.90
21123;DHT22;10719;48.130;11.630;2023-02-28T17:11:24;1.50;99.90
21123;DHT22;10719;48.130;11.630;2023-02-28T17:13:51;1.40;99.90
21123;DHT22;10719;48.130;11.630;2023-02-28T17:16:30;1.30;99.90
21123;DHT22;10719;48.130;11.630;2023-02-28T17:19:04;1.20;99.90
21123;DHT22;10719;48.130;11.630;2023-02-28T17:21:31;1.10;99.90
21123;DHT22;10719;48.130;11.630;2023-02-28T17:23:58;1.10;99.90
21123;DHT22;10719;48.130;11.630;2023-02-28T17:26:24;1.10;99.90
21123;DHT22;10719;48.130;11.630;2023-02-28T17:28:51;1.00;99.90
21123;DHT22;10719;48.130;11.630;2023-02-28T17:31:17;1.10;99.90
21123;DHT22;10719;48.130;11.630;2023-02-28T17:33:43;1.10;99.90
21123;DHT22;10719;48.130;11.630;2023-02-28T17:36:30;1.10;99.90
21123;DHT22;10719;48.130;11.630;2023-02-28T17:38:55;1.10;99.90
21123;DHT22;10719;48.130;11.630;2023-02-28T17:41:22;1.10;99.90
21123;DHT22;10719;48.130;11.630;2023-02-28T17:43:47;1.10;99.90
21123;DHT22;10719;48.130;11.630;2023-02-28T17:46:19;1.10;99.90
21123;DHT22;10719;48.130;11.630;2023-02-28T17:48:48;1.20;99.90
21123;DHT22;10719;48.130;11.630;2023-02-28T17:51:15;1.20;99.90
21123;DHT22;10719;48.130;11.630;2023-02-28T17:53:41;1.20;99.90
21123;DHT22;10719;48.130;11.630;2023-02-28T17:56:16;1.10;99.90
21123;DHT22;10719;48.130;11.630;2023-02-28T17:58:42;1.10;99.90